KBJI

Bemidji Regional Airport

Bemidji, Minnesota, USA
METAR KBJI 220955Z AUTO 00000KT 10SM CLR 07/06 A3001 RMK AO2 T00650058
Observed Flight Rules
May-22 @ 09:55 UTC (22 minutes ago) Visual Flight Rules
Visibility Clouds
10 miles
  • Clear skies
Temperatures Readings
Current 7°C / 45°F
Dewpoint 6°C / 43°F
Humidity 93%
Altimeter 30.01" Hg
Pressure 1016 hPa
Elevation 420
METAR KBJI 220955Z AUTO 00000KT 10SM CLR 07/06 A3001 RMK AO2 T00650058
Observed Flight Rules
May-22 @ 09:55 UTC
(22 minutes ago)
VFR
Clouds
  • Clear skies
Temperature Dewpoint
7°C / 45°F 6°C / 43°F
Humidity Altimeter Pressure
93% 30.01" Hg 1016 hPa